createdAt,value
2019-01-25T00:00:35.063Z,-4
2019-01-25T00:01:41.727Z,-4
2019-01-25T00:02:48.649Z,-4
2019-01-25T00:03:55.840Z,-4
2019-01-25T00:05:02.996Z,-4
2019-01-25T00:06:10.199Z,-4
2019-01-25T00:07:17.362Z,-4
2019-01-25T00:08:24.277Z,-4
2019-01-25T00:09:31.722Z,-4
2019-01-25T00:10:38.654Z,-4
2019-01-25T00:11:45.849Z,-4
2019-01-25T00:12:53.046Z,-4
2019-01-25T00:14:00.027Z,-4
2019-01-25T00:15:07.209Z,-4
2019-01-25T00:16:14.418Z,-4
2019-01-25T00:17:21.553Z,-4
2019-01-25T00:18:28.749Z,-4
2019-01-25T00:19:35.951Z,-4.1
2019-01-25T00:20:43.193Z,-4
2019-01-25T00:21:50.383Z,-4
2019-01-25T00:22:57.322Z,-4
2019-01-25T00:24:04.239Z,-4.1
2019-01-25T00:25:11.438Z,-4.1
2019-01-25T00:26:18.364Z,-4.1
2019-01-25T00:27:25.575Z,-4.1
2019-01-25T00:28:32.788Z,-4.1
2019-01-25T00:29:40.000Z,-4.1
2019-01-25T00:30:46.910Z,-4
2019-01-25T00:31:54.102Z,-4.1
2019-01-25T00:33:01.302Z,-4.1
2019-01-25T00:34:08.518Z,-4.1
2019-01-25T00:35:15.714Z,-4.1
2019-01-25T00:36:23.045Z,-4.1
2019-01-25T00:37:30.142Z,-4.1
2019-01-25T00:38:37.357Z,-4.1
2019-01-25T00:39:44.311Z,-4.1
2019-01-25T00:40:51.523Z,-4.1
2019-01-25T00:41:58.752Z,-4.1
2019-01-25T00:43:05.961Z,-4.1
2019-01-25T00:44:12.892Z,-4.1
2019-01-25T00:45:20.312Z,-4.1
2019-01-25T00:46:27.503Z,-4.1
2019-01-25T00:47:34.720Z,-4.1
2019-01-25T00:48:41.927Z,-4.1
2019-01-25T00:49:49.081Z,-4.1
2019-01-25T00:50:56.282Z,-4.1
2019-01-25T00:52:03.508Z,-4.1
2019-01-25T00:53:10.434Z,-4.2
2019-01-25T00:54:17.639Z,-4.1
2019-01-25T00:55:24.852Z,-4.1
2019-01-25T00:56:32.050Z,-4.1
2019-01-25T00:57:39.270Z,-4.2
2019-01-25T00:58:46.485Z,-4.1
2019-01-25T00:59:53.695Z,-4.1
2019-01-25T01:01:00.921Z,-4.1
2019-01-25T01:02:08.116Z,-4.1
2019-01-25T01:03:15.554Z,-4.1
2019-01-25T01:04:22.753Z,-4.1
2019-01-25T01:05:29.956Z,-4.1
2019-01-25T01:06:37.161Z,-4.1
2019-01-25T01:07:44.373Z,-4.2
2019-01-25T01:08:51.584Z,-4.2
2019-01-25T01:09:58.788Z,-4.2
2019-01-25T01:11:05.701Z,-4.3
2019-01-25T01:12:12.895Z,-4.3
2019-01-25T01:13:19.845Z,-4.3
2019-01-25T01:14:27.050Z,-4.2
2019-01-25T01:15:34.252Z,-4.2
2019-01-25T01:16:41.470Z,-4.2
2019-01-25T01:17:48.673Z,-4.2
2019-01-25T01:18:55.083Z,-4.2
2019-01-25T01:20:02.292Z,-4.2
2019-01-25T01:21:09.214Z,-4.3
2019-01-25T01:22:16.645Z,-4.3
2019-01-25T01:23:23.850Z,-4.3
2019-01-25T01:24:31.282Z,-4.3
2019-01-25T01:25:38.476Z,-4.3
2019-01-25T01:26:45.712Z,-4.3
2019-01-25T01:27:52.913Z,-4.3
2019-01-25T01:29:00.108Z,-4.3
2019-01-25T01:30:07.317Z,-4.3
2019-01-25T01:31:14.249Z,-4.3
2019-01-25T01:32:21.442Z,-4.3
2019-01-25T01:33:28.387Z,-4.3
2019-01-25T01:34:35.317Z,-4.3
2019-01-25T01:35:42.720Z,-4.3
2019-01-25T01:36:49.920Z,-4.3
2019-01-25T01:37:57.116Z,-4.3
2019-01-25T01:39:04.318Z,-4.3
2019-01-25T01:40:11.241Z,-4.2
2019-01-25T01:41:18.434Z,-4.2
2019-01-25T01:42:25.634Z,-4.2
2019-01-25T01:43:32.826Z,-4.2
2019-01-25T01:44:39.766Z,-4.2
2019-01-25T01:45:46.971Z,-4.2
2019-01-25T01:46:54.187Z,-4.2
2019-01-25T01:48:00.851Z,-4.2
2019-01-25T01:49:08.049Z,-4.2
2019-01-25T01:50:15.251Z,-4.2
2019-01-25T01:51:22.446Z,-4.2
2019-01-25T01:52:29.646Z,-4.2
2019-01-25T01:53:36.588Z,-4.2
2019-01-25T01:54:43.792Z,-4.2
2019-01-25T01:55:51.028Z,-4.2
2019-01-25T01:56:58.224Z,-4.2
2019-01-25T01:58:05.143Z,-4.2
2019-01-25T01:59:12.337Z,-4.2
2019-01-25T02:00:19.272Z,-4.2
2019-01-25T02:01:26.462Z,-4.2
2019-01-25T02:02:33.677Z,-4.1
2019-01-25T02:03:40.593Z,-4.2
2019-01-25T02:04:47.797Z,-4.2
2019-01-25T02:05:54.994Z,-4.2
2019-01-25T02:07:02.203Z,-4.2
2019-01-25T02:08:09.402Z,-4.2
2019-01-25T02:09:16.599Z,-4.1
2019-01-25T02:10:30.118Z,-4.1
2019-01-25T02:11:37.037Z,-4.1
2019-01-25T02:12:44.233Z,-4.1
2019-01-25T02:13:51.445Z,-4.1
2019-01-25T02:14:58.656Z,-4.1
2019-01-25T02:16:05.848Z,-4.1
2019-01-25T02:17:12.773Z,-4.1
2019-01-25T02:18:19.966Z,-4.1
2019-01-25T02:19:27.166Z,-4.1
2019-01-25T02:20:34.371Z,-4.1
2019-01-25T02:21:41.297Z,-4.1
2019-01-25T02:22:48.495Z,-4.2
2019-01-25T02:23:55.424Z,-4.2
2019-01-25T02:25:02.628Z,-4.1
2019-01-25T02:26:09.562Z,-4.1
2019-01-25T02:27:16.998Z,-4.2
2019-01-25T02:28:24.204Z,-4.1
2019-01-25T02:29:31.410Z,-4.1
2019-01-25T02:30:38.626Z,-4.1
2019-01-25T02:31:45.831Z,-4.2
2019-01-25T02:32:52.751Z,-4.2
2019-01-25T02:34:01.247Z,-4.2
2019-01-25T02:35:08.439Z,-4.2
2019-01-25T02:36:15.639Z,-4.2
2019-01-25T02:37:22.835Z,-4.1
2019-01-25T02:38:29.755Z,-4.2
2019-01-25T02:39:36.958Z,-4.1
2019-01-25T02:40:44.152Z,-4.1
2019-01-25T02:41:51.370Z,-4.1
2019-01-25T02:42:58.274Z,-4.1
2019-01-25T02:44:05.484Z,-4.1
2019-01-25T02:45:12.684Z,-4
2019-01-25T02:46:19.910Z,-4
2019-01-25T02:47:27.113Z,-4
2019-01-25T02:48:34.365Z,-4
2019-01-25T02:49:41.549Z,-4.1
2019-01-25T02:50:48.467Z,-4.1
2019-01-25T02:51:55.667Z,-4.1
2019-01-25T02:53:04.565Z,-4
2019-01-25T02:54:11.775Z,-4
2019-01-25T02:55:18.967Z,-4
2019-01-25T02:56:26.185Z,-4
2019-01-25T02:57:33.401Z,-4
2019-01-25T02:58:40.600Z,-4
2019-01-25T02:59:47.266Z,-4
2019-01-25T03:00:54.466Z,-4
2019-01-25T03:02:01.674Z,-4
2019-01-25T03:03:08.903Z,-4
2019-01-25T03:04:15.818Z,-4
2019-01-25T03:05:22.742Z,-4.1
2019-01-25T03:06:29.933Z,-4.1
2019-01-25T03:07:36.872Z,-4.1
2019-01-25T03:08:43.814Z,-4.1
2019-01-25T03:09:51.012Z,-4.1
2019-01-25T03:10:58.230Z,-4.1
2019-01-25T03:12:05.439Z,-4.1
2019-01-25T03:13:12.641Z,-4.1
2019-01-25T03:14:19.850Z,-4.1
2019-01-25T03:15:26.820Z,-4.1
2019-01-25T03:16:34.023Z,-4.1
2019-01-25T03:17:40.943Z,-4.1
2019-01-25T03:18:48.146Z,-4.1
2019-01-25T03:19:55.070Z,-4.1
2019-01-25T03:21:02.268Z,-4.1
2019-01-25T03:22:09.180Z,-4.1
2019-01-25T03:23:16.370Z,-4.1
2019-01-25T03:24:23.975Z,-4.1
2019-01-25T03:25:31.182Z,-4.1
2019-01-25T03:26:38.116Z,-4.1
2019-01-25T03:27:45.312Z,-4.1
2019-01-25T03:28:52.513Z,-4.1
2019-01-25T03:29:59.709Z,-4.1
2019-01-25T03:31:06.953Z,-4.1
2019-01-25T03:32:14.183Z,-4.1
2019-01-25T03:33:21.380Z,-4.1
2019-01-25T03:34:28.598Z,-4.1
2019-01-25T03:35:35.797Z,-4.1
2019-01-25T03:36:43.023Z,-4.1
2019-01-25T03:37:50.246Z,-4.1
2019-01-25T03:38:57.532Z,-4.1
2019-01-25T03:40:04.742Z,-4.1
2019-01-25T03:41:11.951Z,-4.1
2019-01-25T03:42:19.188Z,-4.1
2019-01-25T03:43:26.142Z,-4.1
2019-01-25T03:44:33.339Z,-4.1
2019-01-25T03:45:40.287Z,-4.1
2019-01-25T03:46:47.499Z,-4.1
2019-01-25T03:47:54.754Z,-4.1
2019-01-25T03:49:01.939Z,-4.1
2019-01-25T03:50:08.594Z,-4.1
2019-01-25T03:51:16.004Z,-4.1
2019-01-25T03:52:23.195Z,-4.1
2019-01-25T03:53:30.137Z,-4.1
2019-01-25T03:54:37.338Z,-4.1
2019-01-25T03:55:44.292Z,-4.1
2019-01-25T03:56:51.499Z,-4.1
2019-01-25T03:57:58.943Z,-4.1
2019-01-25T03:59:06.144Z,-4.1
2019-01-25T04:00:13.306Z,-4.1
2019-01-25T04:01:20.520Z,-4.1
2019-01-25T04:02:27.728Z,-4.1
2019-01-25T04:03:34.938Z,-4.1
2019-01-25T04:04:42.152Z,-4.1
2019-01-25T04:05:48.819Z,-4
2019-01-25T04:06:55.973Z,-4.1
2019-01-25T04:08:03.173Z,-4
2019-01-25T04:09:10.615Z,-4.1
2019-01-25T04:10:17.804Z,-4
2019-01-25T04:11:24.960Z,-4
2019-01-25T04:12:31.896Z,-4
2019-01-25T04:13:39.108Z,-4
2019-01-25T04:14:46.056Z,-4
2019-01-25T04:15:53.266Z,-4
2019-01-25T04:17:00.472Z,-4
2019-01-25T04:18:07.889Z,-4
2019-01-25T04:19:15.109Z,-4.1
2019-01-25T04:20:22.268Z,-4
2019-01-25T04:21:29.516Z,-4
2019-01-25T04:22:36.962Z,-4
2019-01-25T04:23:44.176Z,-4
2019-01-25T04:24:51.392Z,-4
2019-01-25T04:25:58.597Z,-4
2019-01-25T04:27:05.801Z,-4
2019-01-25T04:28:13.002Z,-4
2019-01-25T04:29:19.965Z,-4
2019-01-25T04:30:27.169Z,-4
2019-01-25T04:31:34.130Z,-4
2019-01-25T04:32:41.056Z,-4
2019-01-25T04:33:47.715Z,-4
2019-01-25T04:34:54.905Z,-4
2019-01-25T04:36:02.046Z,-4
2019-01-25T04:37:09.258Z,-4
2019-01-25T04:38:16.465Z,-4
2019-01-25T04:39:23.663Z,-4
2019-01-25T04:40:30.883Z,-4
2019-01-25T04:41:38.102Z,-4
2019-01-25T04:42:45.030Z,-4
2019-01-25T04:43:52.243Z,-4
2019-01-25T04:44:59.196Z,-4
2019-01-25T04:46:06.566Z,-4
2019-01-25T04:47:13.792Z,-4
2019-01-25T04:48:20.987Z,-4
2019-01-25T04:49:28.424Z,-4
2019-01-25T04:50:35.620Z,-3.9
2019-01-25T04:51:42.848Z,-3.9
2019-01-25T04:52:50.072Z,-3.9
2019-01-25T04:53:57.290Z,-3.9
2019-01-25T04:55:04.503Z,-3.9
2019-01-25T04:56:11.438Z,-3.9
2019-01-25T04:57:18.395Z,-3.9
2019-01-25T04:58:25.870Z,-4
2019-01-25T04:59:32.807Z,-4
2019-01-25T05:00:40.053Z,-4
2019-01-25T05:01:47.251Z,-3.9
2019-01-25T05:02:54.688Z,-3.9
2019-01-25T05:04:01.905Z,-3.9
2019-01-25T05:05:09.201Z,-3.9
2019-01-25T05:06:16.397Z,-3.9
2019-01-25T05:07:23.594Z,-3.9
2019-01-25T05:08:30.520Z,-3.9
2019-01-25T05:09:37.734Z,-3.9
2019-01-25T05:10:44.969Z,-3.9
2019-01-25T05:11:52.178Z,-3.9
2019-01-25T05:12:59.373Z,-3.9
2019-01-25T05:14:06.304Z,-3.9
2019-01-25T05:15:13.500Z,-3.9
2019-01-25T05:16:20.938Z,-3.9
2019-01-25T05:17:28.152Z,-3.9
2019-01-25T05:18:35.343Z,-3.9
2019-01-25T05:19:42.560Z,-3.9
2019-01-25T05:20:51.309Z,-3.9
2019-01-25T05:21:58.532Z,-3.9
2019-01-25T05:23:05.748Z,-3.9
2019-01-25T05:24:13.071Z,-3.9
2019-01-25T05:25:20.495Z,-3.9
2019-01-25T05:26:27.704Z,-3.9
2019-01-25T05:27:35.139Z,-3.9
2019-01-25T05:28:42.340Z,-4
2019-01-25T05:29:49.285Z,-4
2019-01-25T05:30:56.224Z,-4
2019-01-25T05:32:03.163Z,-4
2019-01-25T05:33:10.371Z,-4
2019-01-25T05:34:17.580Z,-4
2019-01-25T05:35:24.502Z,-4
2019-01-25T05:36:31.731Z,-4.1
2019-01-25T05:37:38.949Z,-4.1
2019-01-25T05:38:46.194Z,-4.1
2019-01-25T05:39:53.398Z,-4.1
2019-01-25T05:41:00.820Z,-4.1
2019-01-25T05:42:08.255Z,-4.1
2019-01-25T05:43:15.670Z,-4.1
2019-01-25T05:44:22.876Z,-4.1
2019-01-25T05:45:30.342Z,-4.1
2019-01-25T05:46:37.548Z,-4.1
2019-01-25T05:47:44.752Z,-4.1
2019-01-25T05:48:51.965Z,-4.1
2019-01-25T05:49:59.207Z,-4.1
2019-01-25T05:51:06.146Z,-4.1
2019-01-25T05:52:13.302Z,-4.1
2019-01-25T05:53:20.516Z,-4.1
2019-01-25T05:54:27.707Z,-4.1
2019-01-25T05:55:34.912Z,-4.1
2019-01-25T05:56:42.108Z,-4
2019-01-25T05:57:49.320Z,-4.1
2019-01-25T05:58:56.534Z,-4.1
2019-01-25T06:00:03.760Z,-4.1
2019-01-25T06:01:10.969Z,-4.1
2019-01-25T06:02:18.184Z,-4.1
2019-01-25T06:03:25.421Z,-4.1
2019-01-25T06:04:32.349Z,-4.1
2019-01-25T06:05:39.776Z,-4.1
2019-01-25T06:06:46.981Z,-4.1
2019-01-25T06:07:54.202Z,-4.1
2019-01-25T06:09:01.408Z,-4.1
2019-01-25T06:10:08.827Z,-4.1
2019-01-25T06:11:15.763Z,-4.1
2019-01-25T06:12:22.933Z,-4.1
2019-01-25T06:13:30.130Z,-4.1
2019-01-25T06:14:37.328Z,-4.1
2019-01-25T06:15:44.544Z,-4.1
2019-01-25T06:16:51.750Z,-4.1
2019-01-25T06:17:58.950Z,-4.1
2019-01-25T06:19:06.156Z,-4.1
2019-01-25T06:20:13.368Z,-4.1
2019-01-25T06:21:20.595Z,-4.1
2019-01-25T06:22:27.534Z,-4.1
2019-01-25T06:23:34.687Z,-4
2019-01-25T06:24:41.883Z,-4.1
2019-01-25T06:25:49.092Z,-4
2019-01-25T06:26:56.291Z,-4.1
2019-01-25T06:28:03.493Z,-4.1
2019-01-25T06:29:10.715Z,-4.1
2019-01-25T06:30:17.915Z,-4.1
2019-01-25T06:31:25.107Z,-4.1
2019-01-25T06:32:32.318Z,-4.1
2019-01-25T06:33:38.971Z,-4.1
2019-01-25T06:34:46.192Z,-4
2019-01-25T06:35:53.129Z,-4.1
2019-01-25T06:37:00.342Z,-4
2019-01-25T06:38:07.557Z,-4.1
2019-01-25T06:39:14.763Z,-4.1
2019-01-25T06:40:21.962Z,-4.1
2019-01-25T06:41:29.169Z,-4.1
2019-01-25T06:42:36.568Z,-4.1
2019-01-25T06:43:44.045Z,-4.1
2019-01-25T06:44:51.247Z,-4.1
2019-01-25T06:45:58.402Z,-4.1
2019-01-25T06:47:05.330Z,-4.1
2019-01-25T06:48:12.575Z,-4.1
2019-01-25T06:49:19.776Z,-4.1
2019-01-25T06:50:27.238Z,-4.1
2019-01-25T06:51:34.170Z,-4.2
2019-01-25T06:52:41.601Z,-4.2
2019-01-25T06:53:48.802Z,-4.1
2019-01-25T06:54:56.239Z,-4.1
2019-01-25T06:56:03.461Z,-4.1
2019-01-25T06:57:10.662Z,-4.1
2019-01-25T06:58:17.878Z,-4.1
2019-01-25T06:59:25.096Z,-4.1
2019-01-25T07:00:32.341Z,-4.1
2019-01-25T07:01:39.567Z,-4.1
2019-01-25T07:02:46.782Z,-4.1
2019-01-25T07:03:54.220Z,-4.1
2019-01-25T07:05:01.154Z,-4.1
2019-01-25T07:06:08.374Z,-4.1
2019-01-25T07:07:15.586Z,-4.1
2019-01-25T07:08:22.818Z,-4.1
2019-01-25T07:09:30.018Z,-4.1
2019-01-25T07:10:37.437Z,-4.1
2019-01-25T07:11:52.039Z,-4.1
2019-01-25T07:12:59.514Z,-4.1
2019-01-25T07:14:06.439Z,-4.1
2019-01-25T07:15:13.659Z,-4.1
2019-01-25T07:16:20.605Z,-4.1
2019-01-25T07:17:27.796Z,-4.1
2019-01-25T07:18:34.454Z,-4.1
2019-01-25T07:19:41.397Z,-4.1
2019-01-25T07:20:48.599Z,-4.1
2019-01-25T07:21:55.832Z,-4.1
2019-01-25T07:23:02.481Z,-4.1
2019-01-25T07:24:09.914Z,-4.1
2019-01-25T07:25:17.112Z,-4.1
2019-01-25T07:26:24.347Z,-4.1
2019-01-25T07:27:31.545Z,-4.1
2019-01-25T07:28:38.747Z,-4.1
2019-01-25T07:29:45.993Z,-4.1
2019-01-25T07:30:53.199Z,-4.1
2019-01-25T07:32:00.497Z,-4.1
2019-01-25T07:33:07.711Z,-4.1
2019-01-25T07:34:14.924Z,-4.1
2019-01-25T07:35:22.274Z,-4.1
2019-01-25T07:36:29.196Z,-4.1
2019-01-25T07:37:36.607Z,-4.1
2019-01-25T07:38:43.589Z,-4
2019-01-25T07:39:50.539Z,-4.1
2019-01-25T07:40:57.873Z,-4.1
2019-01-25T07:42:04.808Z,-4
2019-01-25T07:43:12.125Z,-4
2019-01-25T07:44:19.355Z,-4
2019-01-25T07:45:26.572Z,-4
2019-01-25T07:46:33.827Z,-4
2019-01-25T07:47:40.837Z,-3.9
2019-01-25T07:48:47.919Z,-3.9
2019-01-25T07:49:55.138Z,-3.9
2019-01-25T07:51:02.153Z,-3.9
2019-01-25T07:52:09.136Z,-3.9
2019-01-25T07:53:16.339Z,-3.9
2019-01-25T07:54:23.610Z,-3.9
2019-01-25T07:55:31.065Z,-3.9
2019-01-25T07:56:38.339Z,-3.9
2019-01-25T07:57:45.555Z,-3.9
2019-01-25T07:58:52.870Z,-3.9
2019-01-25T08:00:00.519Z,-3.8
2019-01-25T08:01:08.093Z,-3.9
2019-01-25T08:02:14.799Z,-3.8
2019-01-25T08:03:22.025Z,-3.8
2019-01-25T08:04:28.961Z,-3.8
2019-01-25T08:05:36.202Z,-3.7
2019-01-25T08:06:43.516Z,-3.7
2019-01-25T08:07:50.787Z,-3.7
2019-01-25T08:08:57.988Z,-3.7
2019-01-25T08:10:05.214Z,-3.7
2019-01-25T08:11:12.305Z,-3.7
2019-01-25T08:12:19.524Z,-3.7
2019-01-25T08:13:26.734Z,-3.7
2019-01-25T08:14:34.014Z,-3.7
2019-01-25T08:15:42.237Z,-3.7
2019-01-25T08:16:49.193Z,-3.7
2019-01-25T08:18:11.000Z,-3.7
2019-01-25T08:19:18.158Z,-3.7
2019-01-25T08:20:25.415Z,-3.7
2019-01-25T08:21:32.728Z,-3.6
2019-01-25T08:22:39.937Z,-3.6
2019-01-25T08:23:47.169Z,-3.6
2019-01-25T08:24:54.434Z,-3.6
2019-01-25T08:26:01.856Z,-3.5
2019-01-25T08:27:09.076Z,-3.5
2019-01-25T08:28:16.343Z,-3.4
2019-01-25T08:29:28.714Z,-3.4
2019-01-25T08:30:36.145Z,-3.3
2019-01-25T08:31:43.674Z,-3.4
2019-01-25T08:32:50.894Z,-3.4
2019-01-25T08:33:58.671Z,-3.4
2019-01-25T08:35:05.959Z,-3.3
2019-01-25T08:36:12.910Z,-3.3
2019-01-25T08:37:20.145Z,-3.3
2019-01-25T08:38:27.093Z,-3.2
2019-01-25T08:39:34.398Z,-3.2
2019-01-25T08:40:42.213Z,-3.3
2019-01-25T08:41:49.193Z,-3.2
2019-01-25T08:42:56.527Z,-3.2
2019-01-25T08:44:03.815Z,-3.2
2019-01-25T08:45:10.777Z,-3.1
2019-01-25T08:46:18.044Z,-3.1
2019-01-25T08:47:25.296Z,-3
2019-01-25T08:48:32.562Z,-3
2019-01-25T08:49:39.780Z,-3
2019-01-25T08:50:47.094Z,-2.9
2019-01-25T08:51:54.143Z,-2.9
2019-01-25T08:53:01.401Z,-2.8
2019-01-25T08:54:08.445Z,-2.8
2019-01-25T08:55:15.742Z,-2.7
2019-01-25T08:56:23.421Z,-2.7
2019-01-25T08:57:30.657Z,-2.6
2019-01-25T08:58:37.883Z,-2.6
2019-01-25T08:59:46.225Z,-2.5
2019-01-25T09:00:53.442Z,-2.4
2019-01-25T09:02:00.652Z,-2.4
2019-01-25T09:03:07.584Z,-2.3
2019-01-25T09:04:14.790Z,-2.3
2019-01-25T09:05:21.717Z,-2.3
2019-01-25T09:06:28.923Z,-2.3
2019-01-25T09:07:36.135Z,-2.3
2019-01-25T09:08:43.064Z,-2.3
2019-01-25T09:09:50.266Z,-2.2
2019-01-25T09:10:57.467Z,-2.2
2019-01-25T09:12:04.407Z,-2.2
2019-01-25T09:13:11.337Z,-2.2
2019-01-25T09:14:18.535Z,-2.2
2019-01-25T09:15:25.741Z,-2.2
2019-01-25T09:16:32.940Z,-2.2
2019-01-25T09:17:39.908Z,-2.1
2019-01-25T09:18:47.110Z,-2
2019-01-25T09:19:54.027Z,-1.9
2019-01-25T09:21:01.236Z,-1.7
2019-01-25T09:22:08.439Z,-1.6
2019-01-25T09:23:15.642Z,-1.6
2019-01-25T09:24:22.588Z,-1.6
2019-01-25T09:25:29.815Z,-1.6
2019-01-25T09:26:37.034Z,-1.5
2019-01-25T09:27:44.234Z,-1.5
2019-01-25T09:28:51.453Z,-1.4
2019-01-25T09:29:58.661Z,-1.4
2019-01-25T09:31:05.598Z,-1.4
2019-01-25T09:32:12.823Z,-1.3
2019-01-25T09:33:19.761Z,-1.2
2019-01-25T09:34:26.960Z,-1
2019-01-25T09:35:34.160Z,-0.9
2019-01-25T09:36:41.351Z,-1
2019-01-25T09:37:48.574Z,-1.1
2019-01-25T09:38:55.772Z,-1
2019-01-25T09:40:02.989Z,-1
2019-01-25T09:41:10.193Z,-0.9
2019-01-25T09:42:17.406Z,-0.7
2019-01-25T09:43:24.608Z,-1
2019-01-25T09:44:31.812Z,-1
2019-01-25T09:45:39.039Z,-1
2019-01-25T09:46:46.238Z,-0.9
2019-01-25T09:47:53.435Z,-0.8
2019-01-25T09:49:00.364Z,-0.8
2019-01-25T09:50:07.302Z,-0.9
2019-01-25T09:51:14.512Z,-0.9
2019-01-25T09:52:21.715Z,-0.9
2019-01-25T09:53:28.918Z,-0.9
2019-01-25T09:54:36.124Z,-0.9
2019-01-25T09:55:43.329Z,-1.1
2019-01-25T09:56:50.260Z,-1.3
2019-01-25T09:57:57.460Z,-1.6
2019-01-25T09:59:04.118Z,-1.7
2019-01-25T10:00:11.327Z,-1.6
2019-01-25T10:01:18.249Z,-1.5
2019-01-25T10:02:25.177Z,-1.6
2019-01-25T10:03:32.101Z,-1.5
2019-01-25T10:04:39.026Z,-1.6
2019-01-25T10:05:46.227Z,-1.6
2019-01-25T10:06:53.424Z,-1.7
2019-01-25T10:08:00.359Z,-1.7
2019-01-25T10:09:07.568Z,-1.7
2019-01-25T10:10:14.249Z,-1.7
2019-01-25T10:11:21.452Z,-1.7
2019-01-25T10:12:28.676Z,-1.6
2019-01-25T10:13:35.873Z,-1.6
2019-01-25T10:14:43.088Z,-1.4
2019-01-25T10:15:50.297Z,-1.4
2019-01-25T10:16:57.492Z,-1.4
2019-01-25T10:18:04.690Z,-1.3
2019-01-25T10:19:11.887Z,-1.1
2019-01-25T10:20:19.098Z,-1
2019-01-25T10:21:26.028Z,-0.9
2019-01-25T10:22:32.946Z,-1
2019-01-25T10:23:40.169Z,-0.9
2019-01-25T10:24:47.104Z,-0.9
2019-01-25T10:25:54.309Z,-1
2019-01-25T10:27:01.278Z,-0.9
2019-01-25T10:28:08.475Z,-1
2019-01-25T10:29:15.689Z,-1
2019-01-25T10:30:22.901Z,-1.1
2019-01-25T10:31:30.117Z,-1.1
2019-01-25T10:32:37.043Z,-1.2
2019-01-25T10:33:44.261Z,-1.1
2019-01-25T10:34:51.469Z,-1
2019-01-25T10:35:58.680Z,-1
2019-01-25T10:37:05.882Z,-1
2019-01-25T10:38:13.104Z,-0.9
2019-01-25T10:39:20.029Z,-0.8
2019-01-25T10:40:27.226Z,-1
2019-01-25T10:41:34.457Z,-1
2019-01-25T10:42:53.124Z,-0.9
2019-01-25T10:44:00.754Z,-0.8
2019-01-25T10:45:08.004Z,-0.7
2019-01-25T10:46:15.014Z,-0.7
2019-01-25T10:47:22.218Z,-0.9
2019-01-25T10:48:29.141Z,-1.1
2019-01-25T10:49:36.084Z,-1.1
2019-01-25T10:50:43.284Z,-1.1
2019-01-25T10:51:50.214Z,-1.3
2019-01-25T10:52:57.419Z,-1.3
2019-01-25T10:54:04.631Z,-1.5
2019-01-25T10:55:11.833Z,-1.5
2019-01-25T10:56:19.042Z,-1.6
2019-01-25T10:57:25.987Z,-1.5
2019-01-25T10:58:33.188Z,-1.5
2019-01-25T10:59:40.407Z,-1.4
2019-01-25T11:00:47.623Z,-1.4
2019-01-25T11:01:54.558Z,-1.6
2019-01-25T11:03:01.758Z,-1.6
2019-01-25T11:04:12.161Z,-1.6
2019-01-25T11:05:19.374Z,-1.6
2019-01-25T11:06:26.583Z,-1.5
2019-01-25T11:07:33.481Z,-1.5
2019-01-25T11:08:40.701Z,-1.5
2019-01-25T11:09:47.897Z,-1.5
2019-01-25T11:10:55.103Z,-1.4
2019-01-25T11:12:02.311Z,-1.4
2019-01-25T11:13:09.512Z,-1.3
2019-01-25T11:14:16.443Z,-1.4
2019-01-25T11:15:23.362Z,-1.3
2019-01-25T11:16:30.288Z,-1.4
2019-01-25T11:17:37.499Z,-1.5
2019-01-25T11:18:44.700Z,-1.5
2019-01-25T11:19:51.903Z,-1.5
2019-01-25T11:20:59.107Z,-1.5
2019-01-25T11:22:06.306Z,-1.6
2019-01-25T11:23:13.242Z,-1.7
2019-01-25T11:24:20.681Z,-1.6
2019-01-25T11:25:27.880Z,-1.6
2019-01-25T11:26:35.091Z,-1.6
2019-01-25T11:27:42.291Z,-1.6
2019-01-25T11:28:48.951Z,-1.5
2019-01-25T11:29:56.159Z,-1.7
2019-01-25T11:31:03.088Z,-1.8
2019-01-25T11:32:10.300Z,-1.8
2019-01-25T11:33:17.225Z,-1.8
2019-01-25T11:34:24.431Z,-1.9
2019-01-25T11:35:31.640Z,-1.9
2019-01-25T11:36:38.574Z,-1.9
2019-01-25T11:37:45.783Z,-1.9
2019-01-25T11:38:52.999Z,-1.9
2019-01-25T11:40:00.247Z,-1.8
2019-01-25T11:41:07.456Z,-1.8
2019-01-25T11:42:14.393Z,-1.6
2019-01-25T11:43:21.590Z,-1.5
2019-01-25T11:44:28.790Z,-1.5
2019-01-25T11:45:35.992Z,-1.5
2019-01-25T11:46:43.193Z,-1.6
2019-01-25T11:47:50.400Z,-1.6
2019-01-25T11:48:57.331Z,-1.7
2019-01-25T11:50:04.262Z,-1.6
2019-01-25T11:51:10.931Z,-1.5
2019-01-25T11:52:18.142Z,-1.5
2019-01-25T11:53:25.360Z,-1.5
2019-01-25T11:54:32.336Z,-1.5
2019-01-25T11:55:39.542Z,-1.5
2019-01-25T11:56:46.756Z,-1.5
2019-01-25T11:57:53.968Z,-1.4
2019-01-25T11:59:01.169Z,-1.5
2019-01-25T12:00:08.366Z,-1.6
2019-01-25T12:01:15.292Z,-1.6
2019-01-25T12:02:22.235Z,-1.6
2019-01-25T12:03:29.445Z,-1.6
2019-01-25T12:04:36.721Z,-1.6
2019-01-25T12:05:43.934Z,-1.5
2019-01-25T12:06:50.867Z,-1.5
2019-01-25T12:07:58.085Z,-1.5
2019-01-25T12:09:05.290Z,-1.5
2019-01-25T12:10:12.502Z,-1.5
2019-01-25T12:11:19.429Z,-1.6
2019-01-25T12:12:26.623Z,-1.5
2019-01-25T12:13:33.831Z,-1.5
2019-01-25T12:14:41.024Z,-1.5
2019-01-25T12:15:48.221Z,-1.5
2019-01-25T12:16:55.433Z,-1.6
2019-01-25T12:18:02.658Z,-1.7
2019-01-25T12:19:09.862Z,-1.7
2019-01-25T12:20:17.085Z,-1.8
2019-01-25T12:21:24.300Z,-1.7
2019-01-25T12:22:31.316Z,-1.7
2019-01-25T12:23:38.634Z,-1.6
2019-01-25T12:24:45.835Z,-1.6
2019-01-25T12:25:53.036Z,-1.6
2019-01-25T12:27:00.234Z,-1.6
2019-01-25T12:28:06.909Z,-1.5
2019-01-25T12:29:13.844Z,-1.6
2019-01-25T12:30:21.090Z,-1.6
2019-01-25T12:31:28.295Z,-1.6
2019-01-25T12:32:34.962Z,-1.4
2019-01-25T12:33:41.885Z,-1.5
2019-01-25T12:34:49.089Z,-1.6
2019-01-25T12:35:56.309Z,-1.7
2019-01-25T12:37:05.294Z,-1.7
2019-01-25T12:38:12.255Z,-1.7
2019-01-25T12:39:19.457Z,-1.7
2019-01-25T12:40:26.379Z,-1.6
2019-01-25T12:41:33.670Z,-1.5
2019-01-25T12:42:40.867Z,-1.4
2019-01-25T12:43:48.072Z,-1.3
2019-01-25T12:44:55.281Z,-1.2
2019-01-25T12:46:02.531Z,-1.2
2019-01-25T12:47:09.739Z,-1.2
2019-01-25T12:48:16.664Z,-1.2
2019-01-25T12:49:23.866Z,-1.1
2019-01-25T12:50:30.797Z,-1.1
2019-01-25T12:51:38.013Z,-1.2
2019-01-25T12:52:45.275Z,-1.1
2019-01-25T12:53:52.515Z,-1.1
2019-01-25T12:54:59.722Z,-1.1
2019-01-25T12:56:06.927Z,-1
2019-01-25T12:57:14.139Z,-1
2019-01-25T12:58:21.064Z,-1.1
2019-01-25T12:59:28.267Z,-1.1
2019-01-25T13:00:35.207Z,-1.1
2019-01-25T13:01:42.404Z,-1
2019-01-25T13:02:49.332Z,-0.9
2019-01-25T13:03:56.541Z,-0.8
2019-01-25T13:05:03.754Z,-0.7
2019-01-25T13:06:10.962Z,-0.7
2019-01-25T13:07:18.174Z,-0.7
2019-01-25T13:08:25.093Z,-0.8
2019-01-25T13:09:32.022Z,-0.9
2019-01-25T13:10:38.961Z,-0.9
2019-01-25T13:11:47.943Z,-1.1
2019-01-25T13:12:55.147Z,-1.1
2019-01-25T13:14:02.348Z,-1
2019-01-25T13:15:09.560Z,-0.9
2019-01-25T13:16:16.489Z,-0.8
2019-01-25T13:17:23.718Z,-0.8
2019-01-25T13:18:30.669Z,-0.7
2019-01-25T13:19:37.899Z,-0.6
2019-01-25T13:20:44.842Z,-0.6
2019-01-25T13:21:51.765Z,-0.6
2019-01-25T13:22:58.973Z,-0.6
2019-01-25T13:24:05.651Z,-0.6
2019-01-25T13:25:12.921Z,-0.6
2019-01-25T13:26:20.185Z,-0.5
2019-01-25T13:27:27.397Z,-0.4
2019-01-25T13:28:34.683Z,-0.4
2019-01-25T13:29:42.087Z,-0.3
2019-01-25T13:30:49.449Z,-0.2
2019-01-25T13:31:56.779Z,-0.4
2019-01-25T13:33:04.158Z,-0.6
2019-01-25T13:34:11.387Z,-0.7
2019-01-25T13:35:18.695Z,-0.8
2019-01-25T13:36:26.001Z,-0.8
2019-01-25T13:37:33.262Z,-0.8
2019-01-25T13:38:40.551Z,-0.8
2019-01-25T13:39:47.482Z,-0.8
2019-01-25T13:40:54.682Z,-0.7
2019-01-25T13:42:01.886Z,-0.7
2019-01-25T13:43:09.108Z,-0.7
2019-01-25T13:44:16.318Z,-0.8
2019-01-25T13:45:23.239Z,-0.8
2019-01-25T13:46:30.455Z,-0.8
2019-01-25T13:47:37.674Z,-0.8
2019-01-25T13:48:44.890Z,-0.7
2019-01-25T13:49:52.098Z,-0.7
2019-01-25T13:50:59.311Z,-0.8
2019-01-25T13:52:06.018Z,-0.8
2019-01-25T13:53:13.342Z,-0.8
2019-01-25T13:54:20.546Z,-0.8
2019-01-25T13:55:27.768Z,-0.7
2019-01-25T13:56:34.696Z,-0.7
2019-01-25T13:57:41.917Z,-0.7
2019-01-25T13:58:49.130Z,-0.7
2019-01-25T13:59:57.752Z,-0.8
2019-01-25T14:01:04.963Z,-0.8
2019-01-25T14:02:11.889Z,-0.9
2019-01-25T14:03:18.838Z,-0.9
2019-01-25T14:04:26.056Z,-1
2019-01-25T14:05:32.993Z,-1
2019-01-25T14:06:54.843Z,-1
2019-01-25T14:08:02.056Z,-1
2019-01-25T14:09:08.984Z,-1
2019-01-25T14:10:16.190Z,-1
2019-01-25T14:11:23.132Z,-1
2019-01-25T14:12:30.346Z,-1
2019-01-25T14:13:37.552Z,-1
2019-01-25T14:14:44.732Z,-1
2019-01-25T14:15:51.934Z,-1.1
2019-01-25T14:16:59.140Z,-1.1
2019-01-25T14:18:06.355Z,-1.1
2019-01-25T14:19:13.568Z,-1.1
2019-01-25T14:20:23.938Z,-1.1
2019-01-25T14:21:31.168Z,-1.1
2019-01-25T14:22:38.102Z,-1.1
2019-01-25T14:23:45.310Z,-1.2
2019-01-25T14:24:52.275Z,-1.2
2019-01-25T14:25:59.477Z,-1.2
2019-01-25T14:27:06.686Z,-1.2
2019-01-25T14:28:13.615Z,-1.2
2019-01-25T14:29:20.547Z,-1.2
2019-01-25T14:30:27.738Z,-1.2
2019-01-25T14:31:34.951Z,-1.2
2019-01-25T14:32:42.170Z,-1.2
2019-01-25T14:33:49.377Z,-1.3
2019-01-25T14:34:56.336Z,-1.3
2019-01-25T14:36:03.277Z,-1.3
2019-01-25T14:37:10.479Z,-1.3
2019-01-25T14:38:17.421Z,-1.3
2019-01-25T14:39:24.610Z,-1.3
2019-01-25T14:40:31.268Z,-1.3
2019-01-25T14:41:38.473Z,-1.3
2019-01-25T14:42:45.406Z,-1.3
2019-01-25T14:43:55.190Z,-1.3
2019-01-25T14:45:02.393Z,-1.2
2019-01-25T14:46:09.599Z,-1.3
2019-01-25T14:47:16.804Z,-1.3
2019-01-25T14:48:24.006Z,-1.2
2019-01-25T14:49:31.205Z,-1.3
2019-01-25T14:50:37.578Z,-1.3
2019-01-25T14:51:44.821Z,-1.3
2019-01-25T14:52:52.034Z,-1.3
2019-01-25T14:53:58.969Z,-1.4
2019-01-25T14:55:06.206Z,-1.3
2019-01-25T14:56:13.404Z,-1.4
2019-01-25T14:57:20.337Z,-1.4
2019-01-25T14:58:27.542Z,-1.4
2019-01-25T14:59:34.497Z,-1.4
2019-01-25T15:00:41.714Z,-1.4
2019-01-25T15:01:48.910Z,-1.4
2019-01-25T15:02:56.109Z,-1.4
2019-01-25T15:04:03.034Z,-1.4
2019-01-25T15:05:10.236Z,-1.5